createdAt,value
2022-10-20T00:05:19.297Z,4177.5
2022-10-20T00:10:53.992Z,4174.1
2022-10-20T00:16:28.957Z,4172.6
2022-10-20T00:22:04.190Z,4175.4
2022-10-20T00:27:40.302Z,4173.4
2022-10-20T00:33:15.036Z,4174.4
2022-10-20T00:38:50.087Z,4174.3
2022-10-20T00:44:25.155Z,4173.8
2022-10-20T00:50:00.111Z,4174.8
2022-10-20T00:55:35.352Z,4174.6
2022-10-20T01:01:10.515Z,4172.4
2022-10-20T01:06:45.320Z,4172.6
2022-10-20T01:12:20.241Z,4172.3
2022-10-20T01:17:54.972Z,4172.4
2022-10-20T01:23:30.058Z,4172.1
2022-10-20T01:29:12.580Z,4168.4
2022-10-20T01:34:54.012Z,4170.6
2022-10-20T01:40:28.844Z,4169.7
2022-10-20T01:46:03.759Z,4173.3
2022-10-20T01:51:39.592Z,4169.2
2022-10-20T01:57:15.020Z,4169.4
2022-10-20T02:02:50.027Z,4171.3
2022-10-20T02:08:25.724Z,4171.4
2022-10-20T02:14:00.785Z,4169.2
2022-10-20T02:19:35.705Z,4169.2
2022-10-20T02:25:10.911Z,4171.1
2022-10-20T02:30:45.806Z,4171.1
2022-10-20T02:36:21.027Z,4169.7
2022-10-20T02:41:57.275Z,4168.9
2022-10-20T02:47:32.037Z,4169.2
2022-10-20T02:53:06.989Z,4168.2
2022-10-20T02:58:41.926Z,4167.1
2022-10-20T03:04:17.950Z,4167.6
2022-10-20T03:09:53.159Z,4166.6
2022-10-20T03:15:28.129Z,4168.1
2022-10-20T03:21:02.900Z,4166.2
2022-10-20T03:26:38.047Z,4165.4
2022-10-20T03:32:12.869Z,4166.1
2022-10-20T03:37:47.474Z,4165.6
2022-10-20T03:43:24.214Z,4164.6
2022-10-20T03:48:59.184Z,4166.6
2022-10-20T03:54:33.998Z,4163.9
2022-10-20T04:00:09.393Z,4164.4
2022-10-20T04:05:44.457Z,4163.2
2022-10-20T04:11:19.491Z,4164.6
2022-10-20T04:16:54.355Z,4162
2022-10-20T04:22:29.223Z,4160.2
2022-10-20T04:28:04.065Z,4163.9
2022-10-20T04:33:39.061Z,4161.7
2022-10-20T04:39:15.073Z,4164.1
2022-10-20T04:44:50.400Z,4161.2
2022-10-20T04:50:25.778Z,4160.2
2022-10-20T04:56:00.831Z,4159.2
2022-10-20T05:01:37.839Z,4164.7
2022-10-20T05:07:13.131Z,4161
2022-10-20T05:12:48.128Z,4158.7
2022-10-20T05:18:24.053Z,4159.4
2022-10-20T05:23:58.843Z,4159.9
2022-10-20T05:29:33.682Z,4160.2
2022-10-20T05:35:08.386Z,4159.7
2022-10-20T05:40:44.840Z,4158.7
2022-10-20T05:46:19.729Z,4156.8
2022-10-20T05:51:54.847Z,4158.4
2022-10-20T05:57:29.711Z,4159.9
2022-10-20T06:03:04.594Z,4159.5
2022-10-20T06:08:42.471Z,4155.7
2022-10-20T06:14:17.338Z,4157.4
2022-10-20T06:19:53.445Z,4156.3
2022-10-20T06:25:28.023Z,4152.8
2022-10-20T06:31:05.032Z,4157
2022-10-20T06:36:50.596Z,4152.8
2022-10-20T06:42:26.540Z,4153.5
2022-10-20T06:48:01.733Z,4152.5
2022-10-20T06:53:36.765Z,4155.2
2022-10-20T06:59:14.721Z,4152
2022-10-20T07:04:49.953Z,4149.8
2022-10-20T07:10:25.591Z,4154.5
2022-10-20T07:16:04.590Z,4152.7
2022-10-20T07:21:46.884Z,4152
2022-10-20T07:27:21.775Z,4152.5
2022-10-20T07:32:56.698Z,4152.2
2022-10-20T07:38:31.575Z,4151.8
2022-10-20T07:44:06.698Z,4154.2
2022-10-20T07:49:46.616Z,4155.5
2022-10-20T07:55:40.269Z,4151.8
2022-10-20T08:01:17.084Z,4163.7
2022-10-20T08:06:53.067Z,4162.9
2022-10-20T08:12:28.360Z,4158.5
2022-10-20T08:18:06.567Z,4165.4
2022-10-20T08:23:42.509Z,4164.9
2022-10-20T08:29:18.453Z,4163.4
2022-10-20T08:34:53.555Z,4165.1
2022-10-20T08:40:28.276Z,4166.7
2022-10-20T08:46:06.301Z,4166.4
2022-10-20T08:51:41.227Z,4169.1
2022-10-20T08:57:16.327Z,4163.2
2022-10-20T09:02:54.165Z,4166.1
2022-10-20T09:08:30.087Z,4166.9
2022-10-20T09:14:04.979Z,4167.9
2022-10-20T09:19:40.052Z,4167.2
2022-10-20T09:25:24.937Z,4164.6
2022-10-20T09:30:59.772Z,4164.9
2022-10-20T09:36:34.801Z,4168.9
2022-10-20T09:42:15.911Z,4168.6
2022-10-20T09:47:52.387Z,4172.6
2022-10-20T09:53:28.269Z,4170.6
2022-10-20T09:59:04.170Z,4168.2
2022-10-20T10:04:40.009Z,4170.7
2022-10-20T10:10:15.465Z,4175.6
2022-10-20T10:15:50.591Z,4175.3
2022-10-20T10:21:26.248Z,4178
2022-10-20T10:27:02.334Z,4179.1
2022-10-20T10:32:40.013Z,4182.6
2022-10-20T10:38:14.991Z,4198.4
2022-10-20T10:43:50.307Z,4206.8
2022-10-20T10:49:25.379Z,4207.4
2022-10-20T10:55:00.381Z,4208.4
2022-10-20T11:00:37.265Z,4213.5
2022-10-20T11:06:13.417Z,4199.7
2022-10-20T11:11:48.741Z,4205.6
2022-10-20T11:17:23.948Z,4209.1
2022-10-20T11:22:59.968Z,4205.1
2022-10-20T11:28:34.785Z,4202.2
2022-10-20T11:34:10.415Z,4207.6
2022-10-20T11:39:45.522Z,4214.3
2022-10-20T11:45:20.465Z,4215.3
2022-10-20T11:50:57.634Z,4214.3
2022-10-20T11:56:32.904Z,4215.6
2022-10-20T12:02:08.570Z,4220.5
2022-10-20T12:07:43.644Z,4214.3
2022-10-20T12:13:26.394Z,4213.6
2022-10-20T12:19:02.624Z,4213.1
2022-10-20T12:24:38.788Z,4208.8
2022-10-20T12:30:13.629Z,4203.1
2022-10-20T12:35:48.363Z,4199.4
2022-10-20T12:41:23.234Z,4201.4
2022-10-20T12:46:58.064Z,4202.6
2022-10-20T12:52:34.055Z,4199.6
2022-10-20T12:58:08.882Z,4204.6
2022-10-20T13:03:44.029Z,4205.9
2022-10-20T13:09:19.075Z,4204.3
2022-10-20T13:14:53.783Z,4205.3
2022-10-20T13:20:28.761Z,4206.3
2022-10-20T13:26:04.481Z,4200.9
2022-10-20T13:31:40.937Z,4201.6
2022-10-20T13:37:23.707Z,4199.1
2022-10-20T13:42:58.694Z,4201.7
2022-10-20T13:48:33.779Z,4203.9
2022-10-20T13:54:09.673Z,4203.9
2022-10-20T13:59:46.057Z,4204.3
2022-10-20T14:05:21.721Z,4204.4
2022-10-20T14:10:56.623Z,4203.9
2022-10-20T14:16:31.483Z,4203.4
2022-10-20T14:22:07.334Z,4209.1
2022-10-20T14:27:42.476Z,4206.9
2022-10-20T14:33:17.550Z,4206.8
2022-10-20T14:38:53.748Z,4203.6
2022-10-20T14:44:33.028Z,4204.2
2022-10-20T14:50:09.490Z,4199.9
2022-10-20T14:55:45.865Z,4201.1
2022-10-20T15:01:22.083Z,4207.6
2022-10-20T15:06:57.110Z,4205.4
2022-10-20T15:12:31.963Z,4205.8
2022-10-20T15:18:07.084Z,4203.6
2022-10-20T15:23:42.017Z,4203.4
2022-10-20T15:29:16.986Z,4203.4
2022-10-20T15:34:53.275Z,4205.3
2022-10-20T15:40:28.924Z,4202.1
2022-10-20T15:46:05.145Z,4199.7
2022-10-20T15:51:39.898Z,4200.6
2022-10-20T15:57:15.611Z,4200.1
2022-10-20T16:02:50.553Z,4197.4
2022-10-20T16:08:25.458Z,4197.9
2022-10-20T16:14:00.725Z,4200.1
2022-10-20T16:19:35.815Z,4198.1
2022-10-20T16:25:13.972Z,4201.9
2022-10-20T16:30:53.930Z,4198.2
2022-10-20T16:36:28.660Z,4197
2022-10-20T16:42:04.519Z,4199.4
2022-10-20T16:47:41.217Z,4197.2
2022-10-20T16:53:16.282Z,4198.6
2022-10-20T16:58:51.211Z,4196.2
2022-10-20T17:04:26.225Z,4197.7
2022-10-20T17:10:01.476Z,4195.7
2022-10-20T17:15:36.161Z,4195.4
2022-10-20T17:21:11.922Z,4196.9
2022-10-20T17:26:46.991Z,4194.5
2022-10-20T17:32:22.048Z,4195.2
2022-10-20T17:38:05.183Z,4195.2
2022-10-20T17:43:42.591Z,4191.5
2022-10-20T17:49:17.770Z,4194.9
2022-10-20T17:54:53.156Z,4192.2
2022-10-20T18:00:58.730Z,4192
2022-10-20T18:06:35.825Z,4193.7
2022-10-20T18:12:10.607Z,4192.4
2022-10-20T18:17:45.465Z,4193.5
2022-10-20T18:23:20.355Z,4192.5
2022-10-20T18:28:55.251Z,4191.2
2022-10-20T18:34:30.191Z,4193
2022-10-20T18:40:04.940Z,4190.7
2022-10-20T18:45:39.665Z,4190.7
2022-10-20T18:51:14.428Z,4190.5
2022-10-20T18:56:49.394Z,4188.7
2022-10-20T19:02:24.557Z,4188.5
2022-10-20T19:07:59.397Z,4189.8
2022-10-20T19:13:35.836Z,4185.8
2022-10-20T19:19:10.935Z,4186.3
2022-10-20T19:24:45.987Z,4186.5
2022-10-20T19:35:56.724Z,4187
2022-10-20T19:41:31.699Z,4187.3
2022-10-20T19:47:06.755Z,4186
2022-10-20T19:52:41.897Z,4188.5
2022-10-20T19:58:18.082Z,4189.2
2022-10-20T20:03:52.933Z,4186.7
2022-10-20T20:09:27.658Z,4186.2
2022-10-20T20:15:02.575Z,4187.2
2022-10-20T20:20:37.457Z,4185.2
2022-10-20T20:26:17.067Z,4185.3
2022-10-20T20:31:52.063Z,4185.5
2022-10-20T20:37:28.075Z,4183.3
2022-10-20T20:43:02.999Z,4184
2022-10-20T20:48:38.196Z,4181
2022-10-20T20:54:13.026Z,4180.8
2022-10-20T20:59:48.650Z,4181.3
2022-10-20T21:05:23.701Z,4179.5
2022-10-20T21:11:02.676Z,4179.8
2022-10-20T21:16:38.788Z,4179.8
2022-10-20T21:22:13.788Z,4182.5
2022-10-20T21:27:49.900Z,4179.8
2022-10-20T21:33:28.218Z,4178.8
2022-10-20T21:39:10.580Z,4178.6
2022-10-20T21:44:48.865Z,4178.8
2022-10-20T21:50:43.733Z,4178.5
2022-10-20T21:56:23.155Z,4177.5
2022-10-20T22:01:58.524Z,4175.6
2022-10-20T22:07:38.321Z,4176.8
2022-10-20T22:13:13.671Z,4176.1
2022-10-20T22:18:56.446Z,4177.5
2022-10-20T22:24:31.361Z,4177.1
2022-10-20T22:30:18.507Z,4178.1
2022-10-20T22:36:27.330Z,4177.5
2022-10-20T22:42:05.912Z,4177.5
2022-10-20T22:47:44.848Z,4178.8
2022-10-20T22:53:19.555Z,4176.6
2022-10-20T22:58:54.539Z,4176.4
2022-10-20T23:04:29.560Z,4174.9
2022-10-20T23:10:05.551Z,4177.1
2022-10-20T23:15:40.304Z,4177.6
2022-10-20T23:21:15.331Z,4172.3
2022-10-20T23:26:51.214Z,4175.1
2022-10-20T23:32:26.264Z,4176.6
2022-10-20T23:38:04.143Z,4176.1
2022-10-20T23:43:40.245Z,4172.8
2022-10-20T23:49:28.601Z,4174.4
2022-10-20T23:55:03.602Z,4175.3
